< Cyclone 200405 2004 Season Cyclone 200407 >
Cyclone 200406 (EVAN)
General InformationTrack Information on Google MapsDetailed Wind InformationList of All Images || ResourceGoogle EarthGE AnimationAtom FeedGeoJSON
Detalied Best Track (Time Zone = UTC)
Year Month Day Hour Lat. Long. Pressure (hPa) Wind (kt) Class Image Chart
2004 2 27 00 -12.7 141.5 1006 15 2 Image --
2004 2 27 06 -12.6 141.2 1005 15 2 Image --
2004 2 27 12 -12.7 140.7 1005 15 2 Image --
2004 2 27 18 -12.9 140.5 1004 15 2 Image --
2004 2 28 00 -13.1 140.4 1005 15 2 Image --
2004 2 28 06 -13.3 140.3 1003 15 2 Image --
2004 2 28 12 -13.5 140.2 1005 15 2 Image --
2004 2 28 18 -13.6 140.1 1003 20 2 Image --
2004 2 28 21 -13.6 140.0 1003 20 2 Image --
2004 2 29 00 -13.6 139.9 1004 20 2 Image --
2004 2 29 03 -13.6 139.8 1004 20 2 Image --
2004 2 29 06 -13.5 139.7 1002 20 2 Image --
2004 2 29 12 -13.4 139.5 1003 20 2 Image --
2004 2 29 15 -13.3 139.4 1002 20 2 Image --
2004 2 29 18 -13.3 139.1 999 20 2 Image --
2004 2 29 21 -13.4 138.7 999 25 2 Image --
2004 3 1 00 -13.4 138.3 999 25 2 Image --
2004 3 1 03 -13.5 137.8 997 30 2 Image --
2004 3 1 06 -13.6 137.3 994 30 2 Image --
2004 3 1 08 -13.7 137.0 991 35 3 Image --
2004 3 1 09 -13.7 136.8 991 35 3 Image --
2004 3 1 12 -13.9 136.5 995 25 2 Image --
2004 3 1 15 -13.9 136.0 995 25 2 Image --
2004 3 1 18 -14.0 135.6 996 20 2 Image --
2004 3 1 21 -14.1 135.2 997 20 2 Image --
2004 3 2 00 -14.1 134.9 998 20 2 Image --
2004 3 2 03 -14.1 134.7 998 15 2 Image --
2004 3 2 06 -14.1 134.3 998 15 2 Image --
2004 3 2 09 -14.2 133.5 998 15 2 Image --
2004 3 2 12 -14.3 133.0 1000 15 2 Image --
2004 3 2 15 -14.5 131.8 1000 15 2 Image --
2004 3 2 18 -14.4 131.3 999 15 2 Image --
2004 3 2 21 -14.2 130.8 1000 15 2 Image --
2004 3 3 00 -14.2 130.0 1000 15 2 Image --
2004 3 3 03 -14.2 129.5 999 15 2 Image --
2004 3 3 06 -14.3 129.2 999 15 2 Image --
2004 3 3 12 -14.5 127.8 999 15 2 Image --
2004 3 3 18 -14.7 126.8 1001 15 2 Image --
2004 3 4 00 -14.9 126.1 1001 15 2 Image --
< Cyclone 200405 2004 Season Cyclone 200407 >

Help